Time;durP1;ratioP1;P1;durP2;ratioP2;P2;SDS_P1;SDS_P2;PMS_P1;PMS_P2;Temp;Humidity;BMP_temperature;BMP_pressure;BME280_temperature;BME280_humidity;BME280_pressure;Samples;Min_cycle;Max_cycle;Signal;HPM_P1;HPM_P2
2021/01/02 00:00:50;;;;;;;63.20;36.15;;;;;;;;;;5086995;28;20560;-76
2021/01/02 00:03:19;;;;;;;67.72;37.85;;;;;;;;;;5089459;28;20184;-75
2021/01/02 00:05:52;;;;;;;64.43;39.25;;;;;;;;;;5088759;28;20186;-73
2021/01/02 00:08:19;;;;;;;62.63;35.88;;;;;;;;;;5088989;28;20183;-73
2021/01/02 00:10:51;;;;;;;66.97;36.15;;;;;;;;;;5078231;28;20207;-75
2021/01/02 00:13:23;;;;;;;67.05;35.17;;;;;;;;;;5073628;28;20207;-75
2021/01/02 00:15:49;;;;;;;66.20;36.70;;;;;;;;;;5072934;28;20660;-76
2021/01/02 00:18:15;;;;;;;62.42;37.83;;;;;;;;;;5074158;28;20180;-75
2021/01/02 00:20:53;;;;;;;64.97;38.77;;;;;;;;;;5073617;28;20558;-74
2021/01/02 00:23:38;;;;;;;66.43;38.30;;;;;;;;;;5073489;28;20783;-75
2021/01/02 00:26:22;;;;;;;59.10;35.30;;;;;;;;;;5071999;28;20526;-74
2021/01/02 00:28:49;;;;;;;59.17;35.47;;;;;;;;;;5082745;28;20192;-74
2021/01/02 00:31:15;;;;;;;64.93;37.92;;;;;;;;;;5078231;28;20203;-76
2021/01/02 00:33:44;;;;;;;63.35;36.17;;;;;;;;;;5072559;28;20549;-74
2021/01/02 00:36:30;;;;;;;59.20;36.47;;;;;;;;;;5071655;28;22001;-73
2021/01/02 00:38:56;;;;;;;63.45;36.63;;;;;;;;;;5074777;28;20202;-74
2021/01/02 00:41:22;;;;;;;59.00;34.70;;;;;;;;;;5088756;28;20197;-73
2021/01/02 00:43:50;;;;;;;58.75;36.30;;;;;;;;;;5080899;28;20641;-75
2021/01/02 00:46:16;;;;;;;64.50;37.22;;;;;;;;;;5078391;28;20267;-75
2021/01/02 00:48:43;;;;;;;61.38;35.83;;;;;;;;;;5076878;28;20187;-75
2021/01/02 00:51:10;;;;;;;66.10;37.55;;;;;;;;;;5068806;28;20234;-75
2021/01/02 00:53:56;;;;;;;58.20;36.13;;;;;;;;;;5083164;28;20184;-75
2021/01/02 00:56:48;;;;;;;60.83;35.97;;;;;;;;;;5082793;28;20311;-73
2021/01/02 00:59:33;;;;;;;59.17;34.17;;;;;;;;;;5072994;28;20560;-76
2021/01/02 01:02:05;;;;;;;55.47;33.70;;;;;;;;;;5073615;28;20222;-75
2021/01/02 01:04:40;;;;;;;55.88;35.63;;;;;;;;;;5072002;28;20649;-76
2021/01/02 01:07:08;;;;;;;55.20;34.80;;;;;;;;;;5072643;28;20706;-75
2021/01/02 01:09:37;;;;;;;53.08;33.03;;;;;;;;;;5088178;28;20190;-73
2021/01/02 01:12:08;;;;;;;56.83;34.30;;;;;;;;;;5093406;28;20208;-74
2021/01/02 01:14:36;;;;;;;55.78;32.00;;;;;;;;;;5090362;28;20179;-73
2021/01/02 01:17:03;;;;;;;63.25;32.90;;;;;;;;;;5075327;28;20188;-75
2021/01/02 01:19:29;;;;;;;52.92;34.10;;;;;;;;;;5075091;28;20187;-75
2021/01/02 01:21:58;;;;;;;58.38;34.15;;;;;;;;;;5075928;28;20204;-72
2021/01/02 01:24:53;;;;;;;57.00;32.90;;;;;;;;;;5081149;28;20184;-74
2021/01/02 01:27:29;;;;;;;55.25;34.33;;;;;;;;;;5075560;28;20187;-74
2021/01/02 01:30:01;;;;;;;54.25;31.25;;;;;;;;;;5088230;28;20210;-75
2021/01/02 01:32:29;;;;;;;50.83;32.22;;;;;;;;;;5081677;28;20207;-75
2021/01/02 01:35:00;;;;;;;54.85;32.45;;;;;;;;;;5081221;28;20191;-74
2021/01/02 01:37:27;;;;;;;54.00;32.92;;;;;;;;;;5081875;28;20182;-74
2021/01/02 01:39:53;;;;;;;56.10;32.08;;;;;;;;;;5072561;28;20870;-74
2021/01/02 01:42:22;;;;;;;48.75;30.27;;;;;;;;;;5080452;28;20556;-75
2021/01/02 01:45:07;;;;;;;51.47;30.15;;;;;;;;;;5073266;28;20267;-76
2021/01/02 01:47:36;;;;;;;49.90;31.48;;;;;;;;;;5083725;28;20225;-74
2021/01/02 01:50:15;;;;;;;55.90;32.65;;;;;;;;;;5071625;28;20208;-73
2021/01/02 01:52:52;;;;;;;56.10;33.10;;;;;;;;;;5079369;28;20215;-74
2021/01/02 01:55:36;;;;;;;51.30;31.65;;;;;;;;;;5081307;28;20183;-75
2021/01/02 01:58:12;;;;;;;56.60;32.38;;;;;;;;;;5092186;28;20168;-74
2021/01/02 02:00:45;;;;;;;53.08;32.42;;;;;;;;;;5093876;28;20195;-74
2021/01/02 02:03:21;;;;;;;54.28;32.35;;;;;;;;;;5074920;28;20600;-74
2021/01/02 02:05:49;;;;;;;49.70;31.15;;;;;;;;;;5091483;28;20179;-76
2021/01/02 02:08:16;;;;;;;52.70;32.10;;;;;;;;;;5094732;28;20207;-74
2021/01/02 02:10:49;;;;;;;50.70;31.58;;;;;;;;;;5104088;28;20607;-73
2021/01/02 02:13:19;;;;;;;50.72;31.67;;;;;;;;;;5083848;28;20219;-76
2021/01/02 02:15:45;;;;;;;52.53;31.58;;;;;;;;;;5094554;28;20210;-74
2021/01/02 02:18:14;;;;;;;49.13;31.17;;;;;;;;;;5085034;28;20180;-74
2021/01/02 02:20:46;;;;;;;43.38;28.92;;;;;;;;;;5074358;28;20800;-72
2021/01/02 02:23:13;;;;;;;52.38;29.95;;;;;;;;;;5074172;28;20215;-74
2021/01/02 02:25:47;;;;;;;47.92;31.27;;;;;;;;;;5074051;28;20184;-74
2021/01/02 02:28:28;;;;;;;46.30;29.73;;;;;;;;;;5078890;28;20175;-75
2021/01/02 02:30:55;;;;;;;44.72;29.17;;;;;;;;;;5078155;28;20196;-75
2021/01/02 02:33:22;;;;;;;49.28;31.40;;;;;;;;;;5087384;28;20199;-73
2021/01/02 02:35:48;;;;;;;45.45;27.77;;;;;;;;;;5086302;28;20250;-74
2021/01/02 02:38:15;;;;;;;47.08;30.25;;;;;;;;;;5088737;28;20174;-75
2021/01/02 02:40:41;;;;;;;47.78;30.40;;;;;;;;;;5086515;28;20589;-75
2021/01/02 02:43:08;;;;;;;47.50;29.77;;;;;;;;;;5088502;28;20179;-73
2021/01/02 02:45:35;;;;;;;48.92;30.48;;;;;;;;;;5093640;28;20231;-75
2021/01/02 02:48:04;;;;;;;48.78;30.48;;;;;;;;;;5093980;28;20171;-73
2021/01/02 02:50:31;;;;;;;49.60;29.63;;;;;;;;;;5094162;28;20530;-76
2021/01/02 02:53:09;;;;;;;44.72;29.00;;;;;;;;;;5078241;28;20200;-75
2021/01/02 02:55:36;;;;;;;47.30;29.90;;;;;;;;;;5081128;28;20262;-74
2021/01/02 02:58:03;;;;;;;53.78;31.10;;;;;;;;;;5080117;28;20178;-74
2021/01/02 03:00:29;;;;;;;48.60;30.42;;;;;;;;;;5093838;28;20191;-76
2021/01/02 03:02:55;;;;;;;52.00;31.20;;;;;;;;;;5093811;28;20207;-75
2021/01/02 03:05:21;;;;;;;45.85;31.08;;;;;;;;;;5093569;28;20203;-74
2021/01/02 03:07:48;;;;;;;49.40;30.42;;;;;;;;;;5089715;28;20188;-73
2021/01/02 03:10:15;;;;;;;49.30;30.55;;;;;;;;;;5084296;28;20196;-73
2021/01/02 03:12:51;;;;;;;48.13;30.58;;;;;;;;;;5078185;28;20222;-74
2021/01/02 03:15:18;;;;;;;48.92;29.63;;;;;;;;;;5073102;28;20179;-78
2021/01/02 03:17:45;;;;;;;48.25;29.80;;;;;;;;;;5087089;28;20633;-77
2021/01/02 03:20:12;;;;;;;48.10;29.58;;;;;;;;;;5074508;28;20564;-75
2021/01/02 03:22:42;;;;;;;51.85;32.47;;;;;;;;;;5093655;28;20187;-75
2021/01/02 03:25:09;;;;;;;49.67;31.15;;;;;;;;;;5093044;28;20189;-75
2021/01/02 03:27:35;;;;;;;49.35;30.65;;;;;;;;;;5087053;28;20390;-73
2021/01/02 03:30:01;;;;;;;49.55;29.77;;;;;;;;;;5093258;28;20572;-75
2021/01/02 03:32:27;;;;;;;52.05;29.20;;;;;;;;;;5082312;28;20234;-73
2021/01/02 03:34:53;;;;;;;44.60;28.65;;;;;;;;;;5090790;28;20224;-73
2021/01/02 03:37:19;;;;;;;44.72;28.48;;;;;;;;;;5087176;28;20172;-75
2021/01/02 03:39:45;;;;;;;47.95;30.33;;;;;;;;;;5093046;28;20183;-75
2021/01/02 03:42:11;;;;;;;45.50;29.67;;;;;;;;;;5093299;28;20259;-75
2021/01/02 03:44:37;;;;;;;48.97;31.00;;;;;;;;;;5076847;28;20176;-74
2021/01/02 03:47:09;;;;;;;48.83;30.33;;;;;;;;;;5085212;28;20221;-74
2021/01/02 03:49:36;;;;;;;49.60;30.92;;;;;;;;;;5093128;28;20258;-76
2021/01/02 03:52:06;;;;;;;48.97;31.33;;;;;;;;;;5083314;28;20770;-74
2021/01/02 03:54:32;;;;;;;48.92;31.42;;;;;;;;;;5073320;28;20172;-75
2021/01/02 03:56:58;;;;;;;42.42;28.02;;;;;;;;;;5084109;28;20171;-74
2021/01/02 03:59:24;;;;;;;43.60;28.23;;;;;;;;;;5090826;28;20175;-75
2021/01/02 04:01:54;;;;;;;43.08;28.52;;;;;;;;;;5093046;28;20698;-74
2021/01/02 04:04:20;;;;;;;45.55;27.77;;;;;;;;;;5092876;28;20556;-75
2021/01/02 04:06:46;;;;;;;48.80;30.20;;;;;;;;;;5088937;28;20258;-76
2021/01/02 04:09:12;;;;;;;43.38;27.27;;;;;;;;;;5083096;28;20178;-75
2021/01/02 04:11:42;;;;;;;46.83;27.65;;;;;;;;;;5072887;28;20199;-75
2021/01/02 04:14:08;;;;;;;44.15;29.40;;;;;;;;;;5089386;28;20577;-74
2021/01/02 04:16:35;;;;;;;42.83;28.73;;;;;;;;;;5090573;28;20644;-74
2021/01/02 04:19:01;;;;;;;44.17;28.25;;;;;;;;;;5093047;28;20218;-74
2021/01/02 04:21:27;;;;;;;44.80;27.15;;;;;;;;;;5092969;28;20529;-75
2021/01/02 04:23:53;;;;;;;42.15;26.63;;;;;;;;;;5075278;28;20226;-75
2021/01/02 04:26:20;;;;;;;43.03;27.30;;;;;;;;;;5085613;28;20183;-75
2021/01/02 04:28:47;;;;;;;39.95;27.45;;;;;;;;;;5095474;28;20182;-75
2021/01/02 04:31:13;;;;;;;41.38;25.67;;;;;;;;;;5096632;28;20200;-75
2021/01/02 04:33:39;;;;;;;39.38;26.52;;;;;;;;;;5092356;28;20172;-76
2021/01/02 04:36:05;;;;;;;42.38;27.52;;;;;;;;;;5080858;28;20848;-75
2021/01/02 04:38:31;;;;;;;46.15;27.17;;;;;;;;;;5092312;28;20194;-73
2021/01/02 04:40:58;;;;;;;42.67;26.08;;;;;;;;;;5096769;28;20202;-75
2021/01/02 04:43:25;;;;;;;42.03;26.65;;;;;;;;;;5096714;28;20221;-76
2021/01/02 04:45:51;;;;;;;44.05;27.95;;;;;;;;;;5085736;28;20260;-76
2021/01/02 04:48:17;;;;;;;46.17;27.33;;;;;;;;;;5093216;28;20636;-75
2021/01/02 04:50:45;;;;;;;41.05;26.17;;;;;;;;;;5096477;28;20282;-74
2021/01/02 04:53:13;;;;;;;41.03;25.52;;;;;;;;;;5096740;28;20612;-73
2021/01/02 04:55:40;;;;;;;35.28;24.73;;;;;;;;;;5085973;28;20172;-76
2021/01/02 04:58:07;;;;;;;45.40;28.17;;;;;;;;;;5091356;28;20209;-75
2021/01/02 05:00:38;;;;;;;39.35;25.65;;;;;;;;;;5096396;28;20671;-74
2021/01/02 05:03:04;;;;;;;42.10;25.83;;;;;;;;;;5091250;28;20237;-75
2021/01/02 05:05:30;;;;;;;41.17;25.25;;;;;;;;;;5075822;28;20180;-76
2021/01/02 05:07:56;;;;;;;41.75;25.63;;;;;;;;;;5085179;28;20183;-74
2021/01/02 05:10:22;;;;;;;38.75;25.60;;;;;;;;;;5084794;28;20193;-73
2021/01/02 05:12:48;;;;;;;38.15;25.23;;;;;;;;;;5076207;28;20207;-74
2021/01/02 05:15:15;;;;;;;39.95;26.38;;;;;;;;;;5085677;28;20363;-76
2021/01/02 05:17:41;;;;;;;39.83;25.45;;;;;;;;;;5081817;28;20258;-76
2021/01/02 05:20:07;;;;;;;33.78;23.67;;;;;;;;;;5095942;28;20207;-76
2021/01/02 05:22:34;;;;;;;42.50;25.08;;;;;;;;;;5095706;28;20262;-76
2021/01/02 05:25:04;;;;;;;38.60;26.13;;;;;;;;;;5091371;28;20183;-74
2021/01/02 05:27:34;;;;;;;40.20;26.13;;;;;;;;;;5092614;28;20691;-75
2021/01/02 05:30:19;;;;;;;46.58;28.80;;;;;;;;;;5095652;28;20214;-74
2021/01/02 05:32:59;;;;;;;44.70;27.40;;;;;;;;;;5085807;28;20747;-72
2021/01/02 05:35:26;;;;;;;42.30;28.10;;;;;;;;;;5075205;28;20255;-74
2021/01/02 05:37:52;;;;;;;43.42;26.65;;;;;;;;;;5082576;28;20632;-72
2021/01/02 05:40:50;;;;;;;46.97;27.67;;;;;;;;;;5075136;28;20192;-76
2021/01/02 05:43:18;;;;;;;45.25;26.20;;;;;;;;;;5098336;28;20306;-75
2021/01/02 05:45:44;;;;;;;58.50;27.58;;;;;;;;;;5083469;28;20180;-76
2021/01/02 05:48:22;;;;;;;47.90;28.42;;;;;;;;;;5095409;28;20171;-75
2021/01/02 05:50:49;;;;;;;43.67;27.08;;;;;;;;;;5094996;28;20195;-75
2021/01/02 05:53:22;;;;;;;49.35;27.27;;;;;;;;;;5095114;28;20206;-74
2021/01/02 05:55:56;;;;;;;47.60;30.75;;;;;;;;;;5082500;28;20176;-75
2021/01/02 05:58:23;;;;;;;52.38;31.33;;;;;;;;;;5081545;28;20175;-73
2021/01/02 06:00:48;;;;;;;53.25;29.40;;;;;;;;;;5095011;28;20196;-74
2021/01/02 06:03:27;;;;;;;47.67;28.67;;;;;;;;;;5094740;28;20186;-76
2021/01/02 06:05:56;;;;;;;45.20;28.27;;;;;;;;;;5095020;28;20171;-75
2021/01/02 06:08:51;;;;;;;49.85;28.27;;;;;;;;;;5094922;28;20572;-76
2021/01/02 06:11:19;;;;;;;50.70;30.23;;;;;;;;;;5088757;28;20720;-76
2021/01/02 06:13:46;;;;;;;43.30;26.65;;;;;;;;;;5094921;28;20668;-76
2021/01/02 06:16:12;;;;;;;51.40;29.55;;;;;;;;;;5091754;28;20186;-74
2021/01/02 06:18:42;;;;;;;46.58;29.17;;;;;;;;;;5093607;28;20566;-74
2021/01/02 06:21:09;;;;;;;47.60;29.50;;;;;;;;;;5089276;28;20192;-73
2021/01/02 06:23:36;;;;;;;45.42;28.20;;;;;;;;;;5090876;28;20263;-75
2021/01/02 06:26:04;;;;;;;43.90;28.55;;;;;;;;;;5094987;28;20167;-75
2021/01/02 06:28:31;;;;;;;41.92;26.95;;;;;;;;;;5094647;28;20186;-73
2021/01/02 06:31:08;;;;;;;44.90;27.25;;;;;;;;;;5080094;28;20282;-73
2021/01/02 06:33:34;;;;;;;49.13;30.30;;;;;;;;;;5085888;28;20209;-74
2021/01/02 06:36:01;;;;;;;49.45;29.05;;;;;;;;;;5077401;28;20180;-73
2021/01/02 06:38:27;;;;;;;44.40;28.48;;;;;;;;;;5084384;28;20171;-74
2021/01/02 06:40:55;;;;;;;45.28;28.73;;;;;;;;;;5086763;28;20201;-72
2021/01/02 06:43:22;;;;;;;47.40;29.42;;;;;;;;;;5074324;28;20180;-74
2021/01/02 06:45:49;;;;;;;48.30;27.95;;;;;;;;;;5082775;28;20179;-74
2021/01/02 06:48:20;;;;;;;41.88;26.00;;;;;;;;;;5094132;28;20540;-75
2021/01/02 06:50:54;;;;;;;45.05;27.17;;;;;;;;;;5093136;28;20245;-74
2021/01/02 06:53:26;;;;;;;44.95;27.55;;;;;;;;;;5090720;28;20199;-73
2021/01/02 06:55:58;;;;;;;44.47;27.30;;;;;;;;;;5093819;28;20171;-74
2021/01/02 06:58:24;;;;;;;49.88;30.33;;;;;;;;;;5089766;28;20183;-74
2021/01/02 07:00:50;;;;;;;49.00;28.25;;;;;;;;;;5083376;28;20576;-75
2021/01/02 07:03:35;;;;;;;47.30;28.17;;;;;;;;;;5089258;28;20188;-73
2021/01/02 07:06:01;;;;;;;43.60;27.02;;;;;;;;;;5086630;28;20187;-75
2021/01/02 07:08:40;;;;;;;51.45;29.65;;;;;;;;;;5073985;28;20249;-74
2021/01/02 07:11:25;;;;;;;45.05;28.98;;;;;;;;;;5086931;28;20195;-74
2021/01/02 07:14:20;;;;;;;50.15;29.20;;;;;;;;;;5073468;28;20255;-72
2021/01/02 07:16:58;;;;;;;49.83;28.60;;;;;;;;;;5084542;28;20172;-74
2021/01/02 07:19:27;;;;;;;48.10;28.27;;;;;;;;;;5082351;28;20513;-75
2021/01/02 07:22:06;;;;;;;46.85;29.05;;;;;;;;;;5091886;28;20202;-75
2021/01/02 07:24:38;;;;;;;43.08;28.20;;;;;;;;;;5074596;28;20564;-75
2021/01/02 07:27:05;;;;;;;44.08;28.15;;;;;;;;;;5073488;28;20188;-75
2021/01/02 07:29:36;;;;;;;48.65;30.15;;;;;;;;;;5090599;28;20175;-73
2021/01/02 07:32:09;;;;;;;53.92;29.23;;;;;;;;;;5080071;28;20211;-75
2021/01/02 07:34:35;;;;;;;48.13;29.60;;;;;;;;;;5085958;28;20813;-75
2021/01/02 07:37:02;;;;;;;54.42;30.75;;;;;;;;;;5079301;28;20168;-73
2021/01/02 07:39:28;;;;;;;49.47;30.85;;;;;;;;;;5088489;28;20175;-75
2021/01/02 07:41:54;;;;;;;46.15;27.83;;;;;;;;;;5083823;28;20279;-74
2021/01/02 07:44:21;;;;;;;48.25;29.70;;;;;;;;;;5076198;28;20642;-75
2021/01/02 07:46:48;;;;;;;45.38;27.67;;;;;;;;;;5082267;28;20236;-73
2021/01/02 07:49:17;;;;;;;47.45;29.95;;;;;;;;;;5081366;28;20206;-74
2021/01/02 07:51:48;;;;;;;47.33;29.25;;;;;;;;;;5082477;28;20204;-75
2021/01/02 07:54:14;;;;;;;45.78;28.02;;;;;;;;;;5074936;28;20180;-73
2021/01/02 07:56:43;;;;;;;44.50;27.55;;;;;;;;;;5073261;28;20180;-73
2021/01/02 07:59:38;;;;;;;45.67;28.95;;;;;;;;;;5082506;28;20176;-72
2021/01/02 08:02:09;;;;;;;47.00;28.00;;;;;;;;;;5072510;28;20188;-76
2021/01/02 08:04:36;;;;;;;45.17;27.35;;;;;;;;;;5087571;28;20180;-76
2021/01/02 08:07:06;;;;;;;46.10;30.25;;;;;;;;;;5085184;28;20199;-72
2021/01/02 08:09:33;;;;;;;45.70;28.90;;;;;;;;;;5105241;28;20175;-73
2021/01/02 08:12:00;;;;;;;53.83;31.55;;;;;;;;;;5097974;28;20207;-72
2021/01/02 08:14:27;;;;;;;50.35;29.05;;;;;;;;;;5086200;28;20263;-76
2021/01/02 08:17:02;;;;;;;48.88;29.65;;;;;;;;;;5095462;28;20214;-75
2021/01/02 08:19:29;;;;;;;54.60;31.50;;;;;;;;;;5097299;28;20575;-76
2021/01/02 08:21:56;;;;;;;56.25;31.15;;;;;;;;;;5090830;28;20541;-75
2021/01/02 08:24:22;;;;;;;50.38;30.08;;;;;;;;;;5096771;28;20254;-75
2021/01/02 08:26:48;;;;;;;49.20;28.30;;;;;;;;;;5097291;28;20203;-74
2021/01/02 08:29:14;;;;;;;52.97;30.38;;;;;;;;;;5095264;28;20209;-75
2021/01/02 08:31:45;;;;;;;52.33;31.13;;;;;;;;;;5096750;28;20203;-76
2021/01/02 08:34:13;;;;;;;53.85;32.03;;;;;;;;;;5095967;28;20254;-74
2021/01/02 08:36:42;;;;;;;56.03;31.80;;;;;;;;;;5092767;28;20615;-73
2021/01/02 08:39:09;;;;;;;58.05;31.38;;;;;;;;;;5076422;28;20183;-74
2021/01/02 08:41:35;;;;;;;58.33;31.67;;;;;;;;;;5087795;28;20204;-75
2021/01/02 08:44:03;;;;;;;53.38;31.08;;;;;;;;;;5075910;28;20509;-75
2021/01/02 08:46:29;;;;;;;56.30;32.10;;;;;;;;;;5091351;28;20594;-75
2021/01/02 08:48:55;;;;;;;52.58;30.83;;;;;;;;;;5096145;28;20207;-76
2021/01/02 08:51:24;;;;;;;54.65;31.40;;;;;;;;;;5096165;28;20231;-75
2021/01/02 08:53:51;;;;;;;54.75;31.70;;;;;;;;;;5084239;28;20664;-75
2021/01/02 08:56:23;;;;;;;57.35;32.03;;;;;;;;;;5081493;28;20176;-75
2021/01/02 08:58:49;;;;;;;51.55;30.23;;;;;;;;;;5096352;28;20225;-73
2021/01/02 09:01:15;;;;;;;54.05;30.83;;;;;;;;;;5079195;28;20237;-75
2021/01/02 09:03:41;;;;;;;58.25;31.30;;;;;;;;;;5095887;28;20171;-75
2021/01/02 09:06:17;;;;;;;55.25;31.35;;;;;;;;;;5088150;28;20181;-73
2021/01/02 09:08:43;;;;;;;55.00;30.30;;;;;;;;;;5078886;28;20199;-74
2021/01/02 09:11:09;;;;;;;55.72;32.20;;;;;;;;;;5095925;28;20252;-75
2021/01/02 09:13:35;;;;;;;56.17;30.08;;;;;;;;;;5095405;28;20241;-75
2021/01/02 09:16:03;;;;;;;57.10;30.60;;;;;;;;;;5095866;28;20171;-75
2021/01/02 09:18:32;;;;;;;53.00;30.08;;;;;;;;;;5095628;28;20178;-74
2021/01/02 09:20:59;;;;;;;55.13;30.38;;;;;;;;;;5086301;28;20270;-75
2021/01/02 09:23:31;;;;;;;51.42;28.08;;;;;;;;;;5095955;28;20350;-73
2021/01/02 09:25:58;;;;;;;52.47;30.00;;;;;;;;;;5095842;28;20184;-74
2021/01/02 09:28:24;;;;;;;53.08;29.55;;;;;;;;;;5088420;28;20560;-76
2021/01/02 09:30:51;;;;;;;48.83;29.33;;;;;;;;;;5089500;28;20223;-75
2021/01/02 09:33:17;;;;;;;48.42;29.85;;;;;;;;;;5077735;28;20290;-76
2021/01/02 09:35:44;;;;;;;52.75;30.15;;;;;;;;;;5078809;28;20186;-74
2021/01/02 09:38:11;;;;;;;49.92;29.67;;;;;;;;;;5074047;28;20177;-73
2021/01/02 09:40:38;;;;;;;50.95;30.85;;;;;;;;;;5079786;28;20202;-73
2021/01/02 09:43:05;;;;;;;49.00;30.05;;;;;;;;;;5095485;28;20180;-75
2021/01/02 09:45:31;;;;;;;54.90;30.67;;;;;;;;;;5091234;28;20188;-76
2021/01/02 09:47:57;;;;;;;49.25;28.65;;;;;;;;;;5089565;28;20179;-73
2021/01/02 09:50:23;;;;;;;45.50;27.75;;;;;;;;;;5092055;28;20682;-76
2021/01/02 09:52:49;;;;;;;54.40;30.05;;;;;;;;;;5089684;28;20215;-75
2021/01/02 09:55:15;;;;;;;51.78;30.73;;;;;;;;;;5095675;28;20171;-75
2021/01/02 09:57:42;;;;;;;49.95;29.40;;;;;;;;;;5096495;28;20179;-73
2021/01/02 10:00:08;;;;;;;48.17;27.88;;;;;;;;;;5095435;28;20215;-76
2021/01/02 10:02:35;;;;;;;55.00;29.67;;;;;;;;;;5094838;28;20187;-74
2021/01/02 10:05:01;;;;;;;48.03;29.25;;;;;;;;;;5092989;28;20180;-73
2021/01/02 10:07:27;;;;;;;49.92;29.33;;;;;;;;;;5074625;28;20199;-76
2021/01/02 10:09:53;;;;;;;48.08;29.80;;;;;;;;;;5088999;28;20211;-74
2021/01/02 10:12:19;;;;;;;45.70;28.17;;;;;;;;;;5083219;28;20268;-74
2021/01/02 10:14:46;;;;;;;46.75;28.40;;;;;;;;;;5092837;28;20180;-75
2021/01/02 10:17:13;;;;;;;45.50;27.67;;;;;;;;;;5085774;28;20689;-73
2021/01/02 10:19:46;;;;;;;47.75;28.90;;;;;;;;;;5080315;28;20179;-75
2021/01/02 10:22:13;;;;;;;43.28;27.45;;;;;;;;;;5089692;28;20236;-73
2021/01/02 10:24:39;;;;;;;48.15;27.92;;;;;;;;;;5094113;28;20228;-74
2021/01/02 10:27:06;;;;;;;47.78;29.27;;;;;;;;;;5094116;28;20582;-75
2021/01/02 10:29:32;;;;;;;45.65;28.65;;;;;;;;;;5093001;28;20214;-75
2021/01/02 10:32:07;;;;;;;45.33;29.27;;;;;;;;;;5094754;28;20622;-74
2021/01/02 10:34:33;;;;;;;49.55;28.98;;;;;;;;;;5082388;28;20188;-73
2021/01/02 10:36:59;;;;;;;48.72;27.92;;;;;;;;;;5075454;28;20180;-76
2021/01/02 10:39:25;;;;;;;53.65;29.20;;;;;;;;;;5081430;28;20242;-73
2021/01/02 10:41:51;;;;;;;44.42;27.13;;;;;;;;;;5090377;28;20227;-75
2021/01/02 10:44:18;;;;;;;43.00;26.55;;;;;;;;;;5078840;28;20218;-73
2021/01/02 10:46:48;;;;;;;52.95;29.30;;;;;;;;;;5090623;28;20206;-76
2021/01/02 10:49:15;;;;;;;45.53;28.15;;;;;;;;;;5090393;28;20552;-75
2021/01/02 10:51:41;;;;;;;46.53;27.85;;;;;;;;;;5082507;28;20199;-74
2021/01/02 10:54:09;;;;;;;47.15;28.80;;;;;;;;;;5075570;28;20717;-76
2021/01/02 10:56:36;;;;;;;46.90;27.58;;;;;;;;;;5082829;28;20181;-76
2021/01/02 10:59:02;;;;;;;46.65;27.15;;;;;;;;;;5090397;28;20209;-75
2021/01/02 11:01:28;;;;;;;48.42;28.25;;;;;;;;;;5090248;28;20210;-74
2021/01/02 11:03:54;;;;;;;49.17;28.30;;;;;;;;;;5070682;28;20176;-76
2021/01/02 11:06:20;;;;;;;46.00;27.85;;;;;;;;;;5087125;28;20540;-74
2021/01/02 11:08:47;;;;;;;43.80;27.25;;;;;;;;;;5091657;28;20266;-76
2021/01/02 11:11:22;;;;;;;46.15;27.75;;;;;;;;;;5081465;28;20203;-75
2021/01/02 11:13:49;;;;;;;45.90;27.75;;;;;;;;;;5069379;28;20261;-75
2021/01/02 11:16:15;;;;;;;47.20;27.33;;;;;;;;;;5088482;28;20645;-76
2021/01/02 11:18:41;;;;;;;46.88;27.85;;;;;;;;;;5083067;28;20515;-74
2021/01/02 11:21:08;;;;;;;45.15;27.70;;;;;;;;;;5069655;28;20210;-73
2021/01/02 11:23:34;;;;;;;44.95;27.20;;;;;;;;;;5075878;28;20199;-74
2021/01/02 11:26:00;;;;;;;45.05;27.20;;;;;;;;;;5069700;28;20191;-76
2021/01/02 11:28:26;;;;;;;41.80;25.60;;;;;;;;;;5080383;28;20185;-74
2021/01/02 11:30:52;;;;;;;48.03;27.75;;;;;;;;;;5083335;28;20564;-74
2021/01/02 11:33:18;;;;;;;48.70;27.88;;;;;;;;;;5082589;28;20219;-72
2021/01/02 11:35:44;;;;;;;45.28;27.33;;;;;;;;;;5069092;28;20176;-75
2021/01/02 11:38:10;;;;;;;41.80;25.67;;;;;;;;;;5075694;28;20183;-74
2021/01/02 11:40:36;;;;;;;51.15;29.42;;;;;;;;;;5069425;28;20200;-75
2021/01/02 11:43:02;;;;;;;45.95;27.13;;;;;;;;;;5075391;28;20293;-74
2021/01/02 11:45:28;;;;;;;48.97;28.52;;;;;;;;;;5085211;28;20187;-75
2021/01/02 11:47:54;;;;;;;41.13;26.60;;;;;;;;;;5089037;28;20187;-73
2021/01/02 11:50:20;;;;;;;48.78;27.77;;;;;;;;;;5089270;28;20207;-75
2021/01/02 11:52:46;;;;;;;43.17;27.50;;;;;;;;;;5082546;28;20606;-75
2021/01/02 11:55:12;;;;;;;45.55;27.95;;;;;;;;;;5082232;28;20188;-74
2021/01/02 11:57:38;;;;;;;39.88;26.42;;;;;;;;;;5075724;28;20199;-74
2021/01/02 12:00:08;;;;;;;50.33;28.27;;;;;;;;;;5072968;28;20285;-74
2021/01/02 12:02:36;;;;;;;45.45;28.15;;;;;;;;;;5077450;28;20213;-75
2021/01/02 12:05:02;;;;;;;40.50;24.70;;;;;;;;;;5073677;28;20202;-75
2021/01/02 12:07:28;;;;;;;45.15;26.10;;;;;;;;;;5068969;28;20192;-75
2021/01/02 12:09:54;;;;;;;44.03;25.88;;;;;;;;;;5070150;28;20188;-75
2021/01/02 12:12:20;;;;;;;46.42;28.05;;;;;;;;;;5080896;28;20221;-74
2021/01/02 12:14:46;;;;;;;40.25;25.33;;;;;;;;;;5070118;28;20180;-75
2021/01/02 12:17:12;;;;;;;39.60;26.00;;;;;;;;;;5079620;28;20185;-73
2021/01/02 12:19:40;;;;;;;42.38;25.25;;;;;;;;;;5070152;28;20180;-75
2021/01/02 12:22:07;;;;;;;43.08;26.67;;;;;;;;;;5078396;28;20513;-74
2021/01/02 12:24:34;;;;;;;47.58;26.73;;;;;;;;;;5069388;28;20208;-73
2021/01/02 12:27:01;;;;;;;44.72;26.73;;;;;;;;;;5076837;28;20536;-73
2021/01/02 12:29:29;;;;;;;44.40;27.95;;;;;;;;;;5084122;28;20186;-72
2021/01/02 12:31:56;;;;;;;44.40;25.95;;;;;;;;;;5088472;28;20211;-73
2021/01/02 12:34:24;;;;;;;40.70;24.88;;;;;;;;;;5084461;28;20237;-72
2021/01/02 12:36:50;;;;;;;46.45;27.17;;;;;;;;;;5073941;28;20179;-72
2021/01/02 12:39:18;;;;;;;42.38;25.25;;;;;;;;;;5074873;28;20641;-72
2021/01/02 12:41:44;;;;;;;41.70;25.52;;;;;;;;;;5072608;28;20265;-74
2021/01/02 12:44:10;;;;;;;43.78;25.90;;;;;;;;;;5074380;28;20943;-74
2021/01/02 12:46:37;;;;;;;44.65;25.90;;;;;;;;;;5076037;28;20186;-74
2021/01/02 12:49:04;;;;;;;40.08;24.63;;;;;;;;;;5076341;28;20267;-73
2021/01/02 12:51:30;;;;;;;41.25;26.52;;;;;;;;;;5072388;28;20596;-75
2021/01/02 12:53:56;;;;;;;36.88;24.02;;;;;;;;;;5092461;28;20537;-75
2021/01/02 12:56:22;;;;;;;38.35;23.27;;;;;;;;;;5092734;28;20540;-73
2021/01/02 12:58:48;;;;;;;43.88;27.08;;;;;;;;;;5092437;28;20187;-75
2021/01/02 13:01:14;;;;;;;49.10;27.40;;;;;;;;;;5092474;28;20196;-75
2021/01/02 13:03:40;;;;;;;49.83;30.52;;;;;;;;;;5091849;28;20561;-75
2021/01/02 13:06:06;;;;;;;41.40;25.38;;;;;;;;;;5077167;28;20306;-75
2021/01/02 13:08:32;;;;;;;41.75;24.58;;;;;;;;;;5092242;28;20227;-76
2021/01/02 13:10:58;;;;;;;40.63;24.55;;;;;;;;;;5081680;28;20238;-76
2021/01/02 13:13:24;;;;;;;42.75;25.15;;;;;;;;;;5072592;28;20208;-74
2021/01/02 13:15:50;;;;;;;43.67;25.77;;;;;;;;;;5077608;28;20176;-74
2021/01/02 13:18:16;;;;;;;39.38;24.40;;;;;;;;;;5072209;28;20199;-75
2021/01/02 13:20:42;;;;;;;43.53;26.08;;;;;;;;;;5076636;28;20669;-76
2021/01/02 13:23:08;;;;;;;40.30;24.95;;;;;;;;;;5071775;28;20211;-73
2021/01/02 13:25:34;;;;;;;44.03;25.77;;;;;;;;;;5074317;28;20768;-75
2021/01/02 13:28:00;;;;;;;42.75;26.02;;;;;;;;;;5074417;28;20581;-75
2021/01/02 13:30:26;;;;;;;42.58;25.08;;;;;;;;;;5090064;28;20203;-75
2021/01/02 13:32:52;;;;;;;36.97;22.17;;;;;;;;;;5079419;28;20195;-73
2021/01/02 13:35:18;;;;;;;43.38;25.65;;;;;;;;;;5074666;28;20176;-74
2021/01/02 13:37:44;;;;;;;48.80;26.73;;;;;;;;;;5083783;28;20183;-74
2021/01/02 13:40:10;;;;;;;42.47;26.38;;;;;;;;;;5091714;28;20226;-73
2021/01/02 13:42:37;;;;;;;41.33;24.85;;;;;;;;;;5091719;28;20220;-74
2021/01/02 13:45:03;;;;;;;40.90;26.83;;;;;;;;;;5075893;28;20657;-75
2021/01/02 13:47:30;;;;;;;40.45;24.38;;;;;;;;;;5080246;28;20644;-75
2021/01/02 13:49:56;;;;;;;42.22;25.17;;;;;;;;;;5091530;28;20187;-77
2021/01/02 13:52:22;;;;;;;40.13;25.67;;;;;;;;;;5091627;28;20260;-74
2021/01/02 13:54:50;;;;;;;43.47;25.52;;;;;;;;;;5091383;28;20176;-74
2021/01/02 13:57:16;;;;;;;38.00;23.85;;;;;;;;;;5074958;28;20184;-74
2021/01/02 13:59:46;;;;;;;43.50;25.95;;;;;;;;;;5070791;28;20537;-75
2021/01/02 14:02:12;;;;;;;47.30;28.83;;;;;;;;;;5070976;28;20541;-75
2021/01/02 14:04:40;;;;;;;46.45;28.58;;;;;;;;;;5070936;28;20192;-76
2021/01/02 14:07:06;;;;;;;45.35;28.63;;;;;;;;;;5070826;28;20207;-76
2021/01/02 14:09:32;;;;;;;46.78;27.38;;;;;;;;;;5086853;28;20214;-73
2021/01/02 14:11:59;;;;;;;50.33;30.38;;;;;;;;;;5076600;28;20734;-73
2021/01/02 14:14:25;;;;;;;41.53;25.98;;;;;;;;;;5070767;28;20188;-75
2021/01/02 14:16:52;;;;;;;46.92;27.20;;;;;;;;;;5083143;28;20190;-76
2021/01/02 14:19:19;;;;;;;48.17;28.70;;;;;;;;;;5090672;28;20578;-76
2021/01/02 14:21:45;;;;;;;52.35;28.83;;;;;;;;;;5073180;28;20222;-73
2021/01/02 14:24:12;;;;;;;49.65;27.58;;;;;;;;;;5082105;28;20244;-76